Chickering American River Reserve, California Weather observations

Data are for 10 minute period ending at time listed.
 Day   Time   Solar   Ave.   Ave.  Ave.  Vector  Max.   Baro.   Total    
  of    of     Rad.   Air    Rel.  Wind   Wind   Wind  Press.  Precip.   
Year   Day            Temp.  Hum.  Speed  Dir.   Gust                    
2015   (PST)  Kw/m2    F      %     mph   deg.    mph    mb.     in.     
-------------------------------------------------------------------------
  90   21:10   0.00   29.6    83    1.5   212     2.5   819.9    0.00 
  90   21:20   0.00   29.4    82    1.5   207     2.1   819.9    0.00 
  90   21:30   0.00   28.9    83    1.9   201     2.7   819.9    0.00 
  90   21:40   0.00   28.6    82    1.7   196     2.6   819.9    0.00 
  90   21:50   0.00   28.5    82    1.3   210     2.6   820.0    0.00 
  90   22:00   0.00   28.5    82    1.2   200     2.1   819.9    0.00 
  90   22:10   0.00   28.4    80    1.3   225     2.2   820.0    0.00 
  90   22:20   0.00   28.5    80    1.5   207     2.5   819.9    0.00 
  90   22:30   0.00   28.2    81    1.3   198     2.6   819.8    0.00 
  90   22:40   0.00   28.1    80    1.2   211     1.8   819.8    0.00 
  90   22:50   0.00   27.9    80    1.3   205     2.1   819.8    0.00 
  90   23:00   0.00   27.8    81    1.1   184     1.9   819.8    0.00 
  90   23:10   0.00   27.7    81    1.2   207     3.4   819.8    0.00 
  90   23:20   0.00   27.7    82    1.3   198     3.2   819.8    0.00 
  90   23:30   0.00   27.5    82    2.2   192     4.7   819.7    0.00 
  90   23:40   0.00   27.4    82    1.4   232     3.8   819.8    0.00 
  90   23:50   0.00   27.4    80    1.5   202     3.9   819.8    0.00 
  91    0:00   0.00   27.3    76    1.6   211     3.1   819.8    0.00 
  91    0:10   0.00   27.3    74    1.7   213     2.3   819.8    0.00 
  91    0:20   0.00   27.3    71    1.8   215     2.8   819.7    0.00 
  91    0:30   0.00   27.5    71    1.9   215     4.2   819.7    0.00 
  91    0:40   0.00   27.6    71    1.8   216     2.6   819.7    0.00 
  91    0:50   0.00   27.7    70    1.6   214     3.3   819.6    0.00 
  91    1:00   0.00   27.6    70    1.6   206     2.9   819.5    0.00 
  91    1:10   0.00   27.5    70    1.0   222     2.1   819.4    0.00 
  91    1:20   0.00   27.6    70    1.4   224     3.2   819.2    0.00 
  91    1:30   0.00   27.7    69    2.1   242     3.3   819.2    0.00 
  91    1:40   0.00   27.8    68    1.7   219     2.9   819.2    0.00 
  91    1:50   0.00   27.6    70    1.3   218     3.1   819.2    0.00 
  91    2:00   0.00   27.5    70    2.0   234     3.7   819.2    0.00 
  91    2:10   0.00   27.9    70    1.4   205     3.1   819.1    0.00 
  91    2:20   0.00   27.3    72    2.1   205     3.7   818.8    0.00 
  91    2:30   0.00   27.3    71    1.7   200     3.4   818.7    0.00 
  91    2:40   0.00   27.6    71    1.7   248     3.9   818.6    0.00 
  91    2:50   0.00   28.4    69    1.1   228     4.9   818.7    0.00 
  91    3:00   0.00   28.6    69    0.8   220     3.1   818.6    0.00 
  91    3:10   0.00   27.5    73    1.7   212     2.7   818.6    0.00 
  91    3:20   0.00   26.9    75    1.9   202     2.6   818.5    0.00 
  91    3:30   0.00   26.5    76    1.4   189     2.2   818.3    0.00 
  91    3:40   0.00   26.1    78    1.4   193     2.2   818.2    0.00 
  91    3:50   0.00   26.0    79    1.2   188     2.0   818.2    0.00 
  91    4:00   0.00   25.8    80    1.3   193     2.5   818.3    0.00 
  91    4:10   0.00   25.5    81    1.3   194     2.2   818.3    0.00 
  91    4:20   0.00   25.4    81    1.1   176     2.3   818.2    0.00 
  91    4:30   0.00   25.2    82    1.1   180     1.6   818.1    0.00 
  91    4:40   0.00   25.1    82    1.9   209     2.7   817.9    0.00 
  91    4:50   0.00   25.2    82    1.2   186     2.4   817.8    0.00 
  91    5:00   0.00   25.0    84    1.6   195     2.6   817.8    0.00 
  91    5:10   0.00   24.8    84    1.1   192     2.9   817.7    0.00 
  91    5:20   0.00   24.6    84    1.4   196     2.5   817.7    0.00 
  91    5:30   0.00   24.5    84    1.6   191     2.6   817.8    0.00 
  91    5:40   0.00   24.4    84    2.0   195     3.0   818.0    0.00 
  91    5:50   0.00   24.4    84    1.7   191     2.8   818.0    0.00 
  91    6:00   0.00   24.2    85    1.2   178     1.8   818.1    0.00 
  91    6:10   0.01   24.1    86    1.8   192     2.4   818.0    0.00 
  91    6:20   0.01   24.3    85    1.9   194     2.9   818.0    0.00 
  91    6:30   0.02   24.5    85    1.5   190     2.7   817.9    0.00 
  91    6:40   0.08   24.9    84    1.8   200     2.9   817.8    0.00 
  91    6:50   0.15   26.1    82    1.5   202     2.5   817.8    0.00 
  91    7:00   0.16   27.2    79    1.4   203     2.3   818.0    0.00 
  91    7:10   0.20   28.5    77    1.0   196     2.4   818.0    0.00 
  91    7:20   0.27   30.6    72    0.5   172     2.0   817.8    0.00 
  91    7:30   0.32   33.2    64    0.1   114     1.0   817.9    0.00 
  91    7:40   0.36   36.1    56    0.9    55     1.9   818.0    0.00 
  91    7:50   0.30   38.3    49    0.5    37     1.4   818.1    0.00 
  91    8:00   0.31   39.1    44    0.3    95     1.0   818.2    0.00 
  91    8:10   100.00  99999.0   99999  99999.0   99999   99999.0   99999.0   99999.00 
  91    8:20   100.00  99999.0   99999  99999.0   99999   99999.0   99999.0   99999.00 
  91    8:30   100.00  99999.0   99999  99999.0   99999   99999.0   99999.0   99999.00 
  91    8:40   100.00  99999.0   99999  99999.0   99999   99999.0   99999.0   99999.00 
  91    8:50   100.00  99999.0   99999  99999.0   99999   99999.0   99999.0   99999.00 
  91    9:00   0.45   42.8    33    1.4    25     3.1   818.4    0.00 
  91    9:10   0.62   43.6    30    1.2    57     3.9   818.4    0.00 
  91    9:20   0.56   44.5    30    2.3    77     5.0   818.3    0.00 
  91    9:30   0.48   45.1    30    1.9    94     5.0   818.3    0.00 
  91    9:40   0.49   45.0    25    2.0    33     4.6   818.3    0.00 
  91    9:50   0.58   45.2    24    2.0   331     5.8   818.3    0.00 
  91   10:00   0.73   45.6    26    3.1   348     8.9   818.2    0.00 
  91   10:10   0.66   47.1    26    2.1    41     6.7   818.1    0.00 
  91   10:20   0.73   48.3    26    2.6    21     9.3   817.9    0.00 
  91   10:30   0.65   47.1    26    3.1    22     7.2   817.8    0.00 
  91   10:40   0.55   46.7    27    2.9    12     8.1   817.8    0.00 
  91   10:50   0.50   46.3    29    2.2    34     5.9   817.7    0.00 
  91   11:00   0.44   46.0    29    2.5    10     7.7   817.7    0.00 
  91   11:10   0.51   46.3    28    1.7   339     7.2   817.6    0.00 
  91   11:20   0.67   47.2    27    2.2   357     7.1   817.6    0.00 
  91   11:30   0.60   47.6    26    3.1   351     8.3   817.5    0.00 
  91   11:40   0.53   46.3    25    2.8   331     8.8   817.4    0.00 
  91   11:50   0.58   46.2    26    2.3   276     7.2   817.4    0.00 
  91   12:00   0.46   46.8    26    2.2   352     9.9   817.4    0.00 
  91   12:10   0.56   46.2    26    2.3    22     6.9   817.4    0.00 
  91   12:20   0.60   47.0    26    2.0   347     6.6   817.4    0.00 
  91   12:30   0.50   46.6    28    2.2    18     5.7   817.3    0.00 
  91   12:40   0.51   46.9    28    1.9    23     4.6   817.3    0.00 
  91   12:50   0.56   46.3    28    2.8     4     7.7   817.2    0.00 
  91   13:00   0.69   46.5    28    2.5   291     7.3   817.0    0.00 
  91   13:10   0.52   46.4    28    1.7    50     6.6   816.9    0.00 
  91   13:20   0.52   46.4    29    1.6   360     6.2   816.9    0.00 
  91   13:30   0.52   46.8    30    2.7    22     8.0   816.8    0.00 
  91   13:40   0.53   46.0    30    2.3    11     8.9   816.8    0.00 
  91   13:50   0.58   46.7    30    2.8    10     5.9   816.8    0.00 
  91   14:00   0.63   47.3    30    2.2    13     5.8   816.7    0.00 
  91   14:10   0.69   47.5    30    2.2    45     6.5   816.7    0.00 
  91   14:20   0.52   46.7    30    2.4    10     7.1   816.6    0.00 
  91   14:30   0.64   46.6    32    1.6    66     5.6   816.6    0.00 
  91   14:40   0.71   48.0    31    2.6    13     8.0   816.5    0.00 
  91   14:50   0.55   47.2    31    3.7    17     8.7   816.4    0.00 
  91   15:00   0.56   46.4    31    2.2    37     8.5   816.4    0.00 
  91   15:10   0.61   47.1    31    1.9    18     6.9   816.3    0.00 
  91   15:20   0.57   47.0    32    2.6   345     8.4   816.4    0.00 
  91   15:30   0.52   46.4    33    1.8     1     6.2   816.4    0.00 
  91   15:40   0.22   45.8    33    1.8   357     6.4   816.4    0.00 
  91   15:50   0.38   46.2    33    1.5    62     6.9   816.4    0.00 
  91   16:00   0.44   45.6    33    2.0     6     8.1   816.4    0.00 
  91   16:10   0.14   44.6    33    1.4   141     5.8   816.4    0.00 
  91   16:20   0.22   44.3    34    2.0   132     7.1   816.4    0.00 
  91   16:30   0.06   42.8    37    1.5   107     5.7   816.4    0.00 
  91   16:40   0.04   42.2    39    1.4   124     6.4   816.2    0.00 
  91   16:50   0.05   41.5    42    1.4   161     5.2   816.2    0.00 
  91   17:00   0.03   40.8    43    1.1   110     4.4   816.2    0.00 
  91   17:10   0.03   40.2    43    0.8    29     4.7   816.3    0.00 
  91   17:20   0.01   39.8    43    0.8    85     3.1   816.2    0.00 
  91   17:30   0.01   39.1    46    0.8   127     3.3   816.3    0.00 
  91   17:40   0.01   38.7    47    0.8   108     2.9   816.3    0.00 
  91   17:50   0.01   37.9    48    0.7    78     2.6   816.3    0.00 
  91   18:00   0.01   37.1    52    0.3    63     1.8   816.4    0.00 
  91   18:10   0.00   36.2    54    0.4   157     2.3   816.3    0.00 
  91   18:20   0.00   35.5    57    0.7   135     2.2   816.4    0.00 
  91   18:30   0.00   34.7    60    0.6   184     1.9   816.4    0.00 
  91   18:40   0.00   34.0    63    0.5   172     1.3   816.4    0.00 
  91   18:50   0.00   33.3    65    0.6   165     1.5   816.4    0.00 
  91   19:00   0.00   32.7    66    0.8   167     5.0   816.4    0.00 
  91   19:10   0.00   32.3    66    0.8   155     2.2   816.5    0.00 
  91   19:20   0.00   31.9    66    0.8   196     3.0   816.6    0.00 
  91   19:30   0.00   31.6    66    0.6   221     2.0   816.7    0.00 
  91   19:40   0.00   31.4    64    0.9   232     2.1   816.8    0.00 
  91   19:50   0.00   31.3    64    1.2   221     2.0   817.0    0.00 
  91   20:00   0.00   31.1    64    1.2   217     2.0   817.0    0.00 
  91   20:10   0.00   31.0    66    1.3   210     2.3   817.2    0.00 
  91   20:20   0.00   31.0    67    0.2   200     0.9   817.2    0.00 
  91   20:30   0.00   31.3    66    0.9   216     1.8   817.2    0.00 
  91   20:40   0.00   31.5    65    1.2   221     1.8   817.2    0.00 
  91   20:50   0.00   31.5    66    1.2   212     1.6   817.2    0.00 
  91   21:00   0.00   31.4    67    0.9   195     1.4   817.2    0.00 

Return to Chickering American River Reserve graphs page.


Western Regional Climate Center,wrcc@dri.edu